sensor_id;sensor_type;location;lat;lon;timestamp;P1;durP1;ratioP1;P2;durP2;ratioP2
48487;SDS011;34289;48.572;13.378;2022-12-07T00:03:31;12.70;;;8.68;;
48487;SDS011;34289;48.572;13.378;2022-12-07T00:06:00;35.95;;;18.25;;
48487;SDS011;34289;48.572;13.378;2022-12-07T00:08:26;29.00;;;15.38;;
48487;SDS011;34289;48.572;13.378;2022-12-07T00:10:52;28.45;;;15.20;;
48487;SDS011;34289;48.572;13.378;2022-12-07T00:13:18;16.42;;;10.43;;
48487;SDS011;34289;48.572;13.378;2022-12-07T00:15:44;21.65;;;11.30;;
48487;SDS011;34289;48.572;13.378;2022-12-07T00:18:09;27.10;;;14.35;;
48487;SDS011;34289;48.572;13.378;2022-12-07T00:20:35;23.27;;;14.45;;
48487;SDS011;34289;48.572;13.378;2022-12-07T00:23:00;36.67;;;19.17;;
48487;SDS011;34289;48.572;13.378;2022-12-07T00:25:26;30.20;;;15.15;;
48487;SDS011;34289;48.572;13.378;2022-12-07T00:27:52;19.80;;;11.85;;
48487;SDS011;34289;48.572;13.378;2022-12-07T00:30:20;35.38;;;15.98;;
48487;SDS011;34289;48.572;13.378;2022-12-07T00:32:46;33.88;;;17.80;;
48487;SDS011;34289;48.572;13.378;2022-12-07T00:35:12;20.23;;;11.63;;
48487;SDS011;34289;48.572;13.378;2022-12-07T00:37:38;34.47;;;16.88;;
48487;SDS011;34289;48.572;13.378;2022-12-07T00:40:04;17.58;;;10.70;;
48487;SDS011;34289;48.572;13.378;2022-12-07T00:42:30;39.35;;;17.27;;
48487;SDS011;34289;48.572;13.378;2022-12-07T00:44:56;20.13;;;11.43;;
48487;SDS011;34289;48.572;13.378;2022-12-07T00:47:21;14.02;;;8.38;;
48487;SDS011;34289;48.572;13.378;2022-12-07T00:49:50;23.63;;;11.43;;
48487;SDS011;34289;48.572;13.378;2022-12-07T00:52:15;21.30;;;11.25;;
48487;SDS011;34289;48.572;13.378;2022-12-07T00:54:41;27.60;;;13.77;;
48487;SDS011;34289;48.572;13.378;2022-12-07T00:57:06;26.13;;;13.43;;
48487;SDS011;34289;48.572;13.378;2022-12-07T00:59:32;11.85;;;8.73;;
48487;SDS011;34289;48.572;13.378;2022-12-07T01:01:57;12.52;;;8.77;;
48487;SDS011;34289;48.572;13.378;2022-12-07T01:04:23;12.27;;;8.00;;
48487;SDS011;34289;48.572;13.378;2022-12-07T01:06:49;12.90;;;8.48;;
48487;SDS011;34289;48.572;13.378;2022-12-07T01:09:14;15.15;;;10.05;;
48487;SDS011;34289;48.572;13.378;2022-12-07T01:11:40;12.45;;;9.73;;
48487;SDS011;34289;48.572;13.378;2022-12-07T01:14:06;9.80;;;7.47;;
48487;SDS011;34289;48.572;13.378;2022-12-07T01:16:31;9.82;;;8.13;;
48487;SDS011;34289;48.572;13.378;2022-12-07T01:18:58;9.32;;;7.32;;
48487;SDS011;34289;48.572;13.378;2022-12-07T01:21:26;10.00;;;6.93;;
48487;SDS011;34289;48.572;13.378;2022-12-07T01:24:03;9.10;;;7.15;;
48487;SDS011;34289;48.572;13.378;2022-12-07T01:26:31;10.82;;;7.65;;
48487;SDS011;34289;48.572;13.378;2022-12-07T01:28:56;7.85;;;6.43;;
48487;SDS011;34289;48.572;13.378;2022-12-07T01:31:25;8.63;;;6.85;;
48487;SDS011;34289;48.572;13.378;2022-12-07T01:33:52;9.95;;;6.43;;
48487;SDS011;34289;48.572;13.378;2022-12-07T01:36:24;7.00;;;6.13;;
48487;SDS011;34289;48.572;13.378;2022-12-07T01:38:56;7.35;;;6.65;;
48487;SDS011;34289;48.572;13.378;2022-12-07T01:41:28;7.95;;;6.45;;
48487;SDS011;34289;48.572;13.378;2022-12-07T01:49:05;9.15;;;7.03;;
48487;SDS011;34289;48.572;13.378;2022-12-07T01:51:34;9.00;;;7.57;;
48487;SDS011;34289;48.572;13.378;2022-12-07T01:54:01;8.23;;;6.95;;
48487;SDS011;34289;48.572;13.378;2022-12-07T01:56:27;9.80;;;7.82;;
48487;SDS011;34289;48.572;13.378;2022-12-07T01:58:54;7.90;;;7.05;;
48487;SDS011;34289;48.572;13.378;2022-12-07T02:01:21;7.80;;;7.00;;
48487;SDS011;34289;48.572;13.378;2022-12-07T02:03:47;8.60;;;7.45;;
48487;SDS011;34289;48.572;13.378;2022-12-07T02:06:16;7.88;;;6.72;;
48487;SDS011;34289;48.572;13.378;2022-12-07T02:08:46;9.55;;;7.72;;
48487;SDS011;34289;48.572;13.378;2022-12-07T02:11:12;9.45;;;7.30;;
48487;SDS011;34289;48.572;13.378;2022-12-07T02:13:39;7.85;;;6.90;;
48487;SDS011;34289;48.572;13.378;2022-12-07T02:26:43;8.73;;;7.45;;
48487;SDS011;34289;48.572;13.378;2022-12-07T02:29:25;7.82;;;6.93;;
48487;SDS011;34289;48.572;13.378;2022-12-07T02:37:49;9.30;;;7.30;;
48487;SDS011;34289;48.572;13.378;2022-12-07T02:40:08;11.65;;;7.10;;
48487;SDS011;34289;48.572;13.378;2022-12-07T02:42:48;8.70;;;7.20;;
48487;SDS011;34289;48.572;13.378;2022-12-07T02:45:18;9.35;;;8.05;;
48487;SDS011;34289;48.572;13.378;2022-12-07T02:47:48;9.55;;;7.85;;
48487;SDS011;34289;48.572;13.378;2022-12-07T02:50:21;8.52;;;7.65;;
48487;SDS011;34289;48.572;13.378;2022-12-07T02:52:46;8.27;;;7.40;;
48487;SDS011;34289;48.572;13.378;2022-12-07T02:55:12;10.38;;;7.40;;
48487;SDS011;34289;48.572;13.378;2022-12-07T02:57:46;11.38;;;7.97;;
48487;SDS011;34289;48.572;13.378;2022-12-07T03:00:42;8.90;;;7.82;;
48487;SDS011;34289;48.572;13.378;2022-12-07T03:03:17;9.75;;;7.90;;
48487;SDS011;34289;48.572;13.378;2022-12-07T03:05:52;9.57;;;8.15;;
48487;SDS011;34289;48.572;13.378;2022-12-07T03:08:25;12.38;;;7.50;;
48487;SDS011;34289;48.572;13.378;2022-12-07T03:11:09;10.95;;;7.00;;
48487;SDS011;34289;48.572;13.378;2022-12-07T03:16:43;9.10;;;8.07;;
48487;SDS011;34289;48.572;13.378;2022-12-07T03:19:18;12.50;;;7.95;;
48487;SDS011;34289;48.572;13.378;2022-12-07T03:21:47;10.32;;;7.55;;
48487;SDS011;34289;48.572;13.378;2022-12-07T03:24:19;9.65;;;8.60;;
48487;SDS011;34289;48.572;13.378;2022-12-07T03:26:51;8.05;;;6.88;;
48487;SDS011;34289;48.572;13.378;2022-12-07T03:29:27;9.70;;;7.63;;
48487;SDS011;34289;48.572;13.378;2022-12-07T03:34:53;9.57;;;7.97;;
48487;SDS011;34289;48.572;13.378;2022-12-07T03:37:40;9.75;;;7.65;;
48487;SDS011;34289;48.572;13.378;2022-12-07T03:42:50;9.30;;;7.32;;
48487;SDS011;34289;48.572;13.378;2022-12-07T03:45:19;9.15;;;7.97;;
48487;SDS011;34289;48.572;13.378;2022-12-07T03:47:53;10.23;;;7.35;;
48487;SDS011;34289;48.572;13.378;2022-12-07T03:53:11;10.98;;;7.88;;
48487;SDS011;34289;48.572;13.378;2022-12-07T03:58:12;12.30;;;7.53;;
48487;SDS011;34289;48.572;13.378;2022-12-07T04:00:41;8.73;;;7.72;;
48487;SDS011;34289;48.572;13.378;2022-12-07T04:03:07;8.02;;;7.15;;
48487;SDS011;34289;48.572;13.378;2022-12-07T04:05:33;8.40;;;7.47;;
48487;SDS011;34289;48.572;13.378;2022-12-07T04:07:59;9.43;;;7.55;;
48487;SDS011;34289;48.572;13.378;2022-12-07T04:10:25;9.13;;;8.10;;
48487;SDS011;34289;48.572;13.378;2022-12-07T04:12:51;9.65;;;7.93;;
48487;SDS011;34289;48.572;13.378;2022-12-07T04:15:16;10.15;;;8.40;;
48487;SDS011;34289;48.572;13.378;2022-12-07T04:17:42;11.70;;;7.85;;
48487;SDS011;34289;48.572;13.378;2022-12-07T04:20:08;8.63;;;7.63;;
48487;SDS011;34289;48.572;13.378;2022-12-07T04:22:34;8.57;;;7.70;;
48487;SDS011;34289;48.572;13.378;2022-12-07T04:24:59;9.80;;;8.15;;
48487;SDS011;34289;48.572;13.378;2022-12-07T04:27:26;9.40;;;8.23;;
48487;SDS011;34289;48.572;13.378;2022-12-07T04:29:51;9.98;;;8.13;;
48487;SDS011;34289;48.572;13.378;2022-12-07T04:32:17;8.80;;;7.63;;
48487;SDS011;34289;48.572;13.378;2022-12-07T04:34:42;8.68;;;7.72;;
48487;SDS011;34289;48.572;13.378;2022-12-07T04:37:08;9.90;;;8.18;;
48487;SDS011;34289;48.572;13.378;2022-12-07T04:39:34;9.23;;;8.18;;
48487;SDS011;34289;48.572;13.378;2022-12-07T04:42:00;10.25;;;8.57;;
48487;SDS011;34289;48.572;13.378;2022-12-07T04:44:26;10.80;;;9.02;;
48487;SDS011;34289;48.572;13.378;2022-12-07T04:46:53;9.35;;;8.35;;
48487;SDS011;34289;48.572;13.378;2022-12-07T04:49:19;10.15;;;8.45;;
48487;SDS011;34289;48.572;13.378;2022-12-07T04:51:44;10.63;;;8.90;;
48487;SDS011;34289;48.572;13.378;2022-12-07T04:54:11;9.65;;;8.65;;
48487;SDS011;34289;48.572;13.378;2022-12-07T04:56:37;10.57;;;8.98;;
48487;SDS011;34289;48.572;13.378;2022-12-07T04:59:03;9.77;;;8.48;;
48487;SDS011;34289;48.572;13.378;2022-12-07T05:01:30;9.63;;;8.40;;
48487;SDS011;34289;48.572;13.378;2022-12-07T05:03:56;9.95;;;8.02;;
48487;SDS011;34289;48.572;13.378;2022-12-07T05:06:21;8.90;;;8.10;;
48487;SDS011;34289;48.572;13.378;2022-12-07T05:08:47;9.75;;;8.75;;
48487;SDS011;34289;48.572;13.378;2022-12-07T05:11:16;10.15;;;8.70;;
48487;SDS011;34289;48.572;13.378;2022-12-07T05:14:03;10.40;;;8.38;;
48487;SDS011;34289;48.572;13.378;2022-12-07T05:16:34;10.15;;;8.50;;
48487;SDS011;34289;48.572;13.378;2022-12-07T05:19:00;9.25;;;8.10;;
48487;SDS011;34289;48.572;13.378;2022-12-07T05:21:26;10.55;;;9.43;;
48487;SDS011;34289;48.572;13.378;2022-12-07T05:23:51;10.20;;;9.20;;
48487;SDS011;34289;48.572;13.378;2022-12-07T05:26:17;10.40;;;9.27;;
48487;SDS011;34289;48.572;13.378;2022-12-07T05:28:43;10.73;;;9.55;;
48487;SDS011;34289;48.572;13.378;2022-12-07T05:31:08;12.75;;;9.32;;
48487;SDS011;34289;48.572;13.378;2022-12-07T05:33:34;14.30;;;10.18;;
48487;SDS011;34289;48.572;13.378;2022-12-07T05:36:00;10.90;;;9.50;;
48487;SDS011;34289;48.572;13.378;2022-12-07T05:38:30;11.43;;;9.48;;
48487;SDS011;34289;48.572;13.378;2022-12-07T05:40:59;15.02;;;11.95;;
48487;SDS011;34289;48.572;13.378;2022-12-07T05:43:56;24.17;;;13.73;;
48487;SDS011;34289;48.572;13.378;2022-12-07T05:46:22;21.95;;;15.55;;
48487;SDS011;34289;48.572;13.378;2022-12-07T05:48:47;17.70;;;14.30;;
48487;SDS011;34289;48.572;13.378;2022-12-07T05:51:13;17.05;;;12.85;;
48487;SDS011;34289;48.572;13.378;2022-12-07T05:53:39;15.32;;;12.73;;
48487;SDS011;34289;48.572;13.378;2022-12-07T05:56:04;15.52;;;12.13;;
48487;SDS011;34289;48.572;13.378;2022-12-07T05:58:30;12.77;;;11.43;;
48487;SDS011;34289;48.572;13.378;2022-12-07T06:01:14;11.85;;;10.65;;
48487;SDS011;34289;48.572;13.378;2022-12-07T06:03:40;13.88;;;10.95;;
48487;SDS011;34289;48.572;13.378;2022-12-07T06:06:05;12.15;;;10.27;;
48487;SDS011;34289;48.572;13.378;2022-12-07T06:08:31;13.13;;;10.50;;
48487;SDS011;34289;48.572;13.378;2022-12-07T06:10:56;12.38;;;11.02;;
48487;SDS011;34289;48.572;13.378;2022-12-07T06:13:40;13.93;;;11.73;;
48487;SDS011;34289;48.572;13.378;2022-12-07T06:16:06;15.57;;;11.02;;
48487;SDS011;34289;48.572;13.378;2022-12-07T06:18:32;15.60;;;12.48;;
48487;SDS011;34289;48.572;13.378;2022-12-07T06:20:59;14.02;;;10.68;;
48487;SDS011;34289;48.572;13.378;2022-12-07T06:23:24;14.70;;;12.05;;
48487;SDS011;34289;48.572;13.378;2022-12-07T06:25:50;13.13;;;10.95;;
48487;SDS011;34289;48.572;13.378;2022-12-07T06:28:16;12.07;;;9.95;;
48487;SDS011;34289;48.572;13.378;2022-12-07T06:30:41;11.88;;;10.65;;
48487;SDS011;34289;48.572;13.378;2022-12-07T06:33:07;13.10;;;11.45;;
48487;SDS011;34289;48.572;13.378;2022-12-07T06:35:33;15.07;;;11.13;;
48487;SDS011;34289;48.572;13.378;2022-12-07T06:37:58;15.43;;;10.55;;
48487;SDS011;34289;48.572;13.378;2022-12-07T06:40:24;11.60;;;10.38;;
48487;SDS011;34289;48.572;13.378;2022-12-07T06:42:50;12.20;;;10.32;;
48487;SDS011;34289;48.572;13.378;2022-12-07T06:45:15;13.85;;;10.80;;
48487;SDS011;34289;48.572;13.378;2022-12-07T06:47:41;12.65;;;11.18;;
48487;SDS011;34289;48.572;13.378;2022-12-07T06:50:07;11.80;;;10.52;;
48487;SDS011;34289;48.572;13.378;2022-12-07T06:52:33;13.45;;;10.20;;
48487;SDS011;34289;48.572;13.378;2022-12-07T06:54:59;13.00;;;10.90;;
48487;SDS011;34289;48.572;13.378;2022-12-07T06:57:24;13.10;;;10.63;;
48487;SDS011;34289;48.572;13.378;2022-12-07T06:59:50;11.80;;;9.82;;
48487;SDS011;34289;48.572;13.378;2022-12-07T07:02:16;14.05;;;11.20;;
48487;SDS011;34289;48.572;13.378;2022-12-07T07:04:42;12.60;;;11.23;;
48487;SDS011;34289;48.572;13.378;2022-12-07T07:07:11;12.38;;;10.98;;
48487;SDS011;34289;48.572;13.378;2022-12-07T07:09:36;13.43;;;10.65;;
48487;SDS011;34289;48.572;13.378;2022-12-07T07:12:02;13.23;;;11.40;;
48487;SDS011;34289;48.572;13.378;2022-12-07T07:14:28;13.88;;;12.15;;
48487;SDS011;34289;48.572;13.378;2022-12-07T07:16:53;13.00;;;11.07;;
48487;SDS011;34289;48.572;13.378;2022-12-07T07:19:19;13.85;;;11.35;;
48487;SDS011;34289;48.572;13.378;2022-12-07T07:21:45;15.73;;;13.20;;
48487;SDS011;34289;48.572;13.378;2022-12-07T07:24:10;14.25;;;12.45;;
48487;SDS011;34289;48.572;13.378;2022-12-07T07:26:36;15.18;;;12.52;;
48487;SDS011;34289;48.572;13.378;2022-12-07T07:29:01;17.73;;;12.85;;
48487;SDS011;34289;48.572;13.378;2022-12-07T07:31:27;15.70;;;12.07;;
48487;SDS011;34289;48.572;13.378;2022-12-07T07:33:53;16.67;;;12.27;;
48487;SDS011;34289;48.572;13.378;2022-12-07T07:36:21;13.75;;;11.82;;
48487;SDS011;34289;48.572;13.378;2022-12-07T07:38:47;13.45;;;11.05;;
48487;SDS011;34289;48.572;13.378;2022-12-07T07:41:12;12.10;;;10.88;;
48487;SDS011;34289;48.572;13.378;2022-12-07T07:43:38;11.93;;;10.32;;
48487;SDS011;34289;48.572;13.378;2022-12-07T07:46:03;11.70;;;10.20;;
48487;SDS011;34289;48.572;13.378;2022-12-07T07:48:29;11.38;;;10.18;;
48487;SDS011;34289;48.572;13.378;2022-12-07T07:50:55;10.88;;;9.77;;
48487;SDS011;34289;48.572;13.378;2022-12-07T07:53:20;10.18;;;8.90;;
48487;SDS011;34289;48.572;13.378;2022-12-07T07:55:55;8.52;;;7.70;;
48487;SDS011;34289;48.572;13.378;2022-12-07T07:58:21;9.45;;;8.48;;
48487;SDS011;34289;48.572;13.378;2022-12-07T08:00:47;8.25;;;7.45;;
48487;SDS011;34289;48.572;13.378;2022-12-07T08:03:12;9.30;;;8.48;;
48487;SDS011;34289;48.572;13.378;2022-12-07T08:05:38;9.02;;;8.10;;
48487;SDS011;34289;48.572;13.378;2022-12-07T08:08:04;9.02;;;8.23;;
48487;SDS011;34289;48.572;13.378;2022-12-07T08:10:29;8.68;;;7.88;;
48487;SDS011;34289;48.572;13.378;2022-12-07T08:12:57;8.57;;;7.78;;
48487;SDS011;34289;48.572;13.378;2022-12-07T08:15:39;8.32;;;7.55;;
48487;SDS011;34289;48.572;13.378;2022-12-07T08:18:07;9.18;;;8.15;;
48487;SDS011;34289;48.572;13.378;2022-12-07T08:20:33;8.43;;;7.72;;
48487;SDS011;34289;48.572;13.378;2022-12-07T08:23:00;8.30;;;7.60;;
48487;SDS011;34289;48.572;13.378;2022-12-07T08:25:26;8.18;;;7.47;;
48487;SDS011;34289;48.572;13.378;2022-12-07T08:27:52;8.45;;;7.75;;
48487;SDS011;34289;48.572;13.378;2022-12-07T08:30:18;8.73;;;7.97;;
48487;SDS011;34289;48.572;13.378;2022-12-07T08:32:45;8.48;;;7.68;;
48487;SDS011;34289;48.572;13.378;2022-12-07T08:35:11;8.77;;;8.07;;
48487;SDS011;34289;48.572;13.378;2022-12-07T08:37:37;8.60;;;7.90;;
48487;SDS011;34289;48.572;13.378;2022-12-07T08:40:04;9.30;;;8.20;;
48487;SDS011;34289;48.572;13.378;2022-12-07T08:42:31;8.75;;;7.85;;
48487;SDS011;34289;48.572;13.378;2022-12-07T08:45:04;10.63;;;8.70;;
48487;SDS011;34289;48.572;13.378;2022-12-07T08:47:39;10.98;;;10.00;;
48487;SDS011;34289;48.572;13.378;2022-12-07T08:50:08;9.55;;;8.73;;
48487;SDS011;34289;48.572;13.378;2022-12-07T08:52:36;9.00;;;8.00;;
48487;SDS011;34289;48.572;13.378;2022-12-07T08:55:03;8.15;;;7.45;;
48487;SDS011;34289;48.572;13.378;2022-12-07T08:57:29;8.63;;;7.93;;
48487;SDS011;34289;48.572;13.378;2022-12-07T08:59:57;9.05;;;8.25;;
48487;SDS011;34289;48.572;13.378;2022-12-07T09:02:23;8.95;;;8.15;;
48487;SDS011;34289;48.572;13.378;2022-12-07T09:04:49;10.27;;;9.30;;
48487;SDS011;34289;48.572;13.378;2022-12-07T09:07:14;19.02;;;12.60;;
48487;SDS011;34289;48.572;13.378;2022-12-07T09:09:40;16.42;;;14.32;;
48487;SDS011;34289;48.572;13.378;2022-12-07T09:12:06;12.80;;;11.48;;
48487;SDS011;34289;48.572;13.378;2022-12-07T09:14:32;14.00;;;12.50;;
48487;SDS011;34289;48.572;13.378;2022-12-07T09:17:31;12.95;;;11.70;;
48487;SDS011;34289;48.572;13.378;2022-12-07T09:19:50;12.77;;;11.10;;
48487;SDS011;34289;48.572;13.378;2022-12-07T09:22:15;12.80;;;11.60;;
48487;SDS011;34289;48.572;13.378;2022-12-07T09:24:41;12.90;;;11.80;;
48487;SDS011;34289;48.572;13.378;2022-12-07T09:27:06;13.55;;;12.23;;
48487;SDS011;34289;48.572;13.378;2022-12-07T09:29:32;14.13;;;12.63;;
48487;SDS011;34289;48.572;13.378;2022-12-07T09:31:57;14.82;;;12.57;;
48487;SDS011;34289;48.572;13.378;2022-12-07T09:34:23;10.90;;;9.80;;
48487;SDS011;34289;48.572;13.378;2022-12-07T09:36:51;13.15;;;11.82;;
48487;SDS011;34289;48.572;13.378;2022-12-07T09:39:16;15.52;;;13.93;;
48487;SDS011;34289;48.572;13.378;2022-12-07T09:41:42;15.05;;;13.43;;
48487;SDS011;34289;48.572;13.378;2022-12-07T09:44:13;13.43;;;12.13;;
48487;SDS011;34289;48.572;13.378;2022-12-07T09:46:42;15.23;;;12.90;;
48487;SDS011;34289;48.572;13.378;2022-12-07T09:49:14;15.00;;;12.98;;
48487;SDS011;34289;48.572;13.378;2022-12-07T09:51:42;14.30;;;12.90;;
48487;SDS011;34289;48.572;13.378;2022-12-07T09:54:09;14.48;;;12.15;;
48487;SDS011;34289;48.572;13.378;2022-12-07T09:56:38;19.10;;;11.80;;
48487;SDS011;34289;48.572;13.378;2022-12-07T09:59:04;16.27;;;12.63;;
48487;SDS011;34289;48.572;13.378;2022-12-07T10:01:31;13.30;;;11.80;;
48487;SDS011;34289;48.572;13.378;2022-12-07T10:04:40;14.20;;;12.25;;
48487;SDS011;34289;48.572;13.378;2022-12-07T10:06:49;13.63;;;11.30;;
48487;SDS011;34289;48.572;13.378;2022-12-07T10:09:16;15.13;;;11.90;;
48487;SDS011;34289;48.572;13.378;2022-12-07T10:12:25;12.88;;;11.25;;
48487;SDS011;34289;48.572;13.378;2022-12-07T10:14:40;14.98;;;11.38;;
48487;SDS011;34289;48.572;13.378;2022-12-07T10:20:18;13.25;;;11.25;;
48487;SDS011;34289;48.572;13.378;2022-12-07T10:23:01;15.93;;;11.82;;
48487;SDS011;34289;48.572;13.378;2022-12-07T10:25:31;14.75;;;12.55;;
48487;SDS011;34289;48.572;13.378;2022-12-07T10:28:02;13.40;;;11.90;;
48487;SDS011;34289;48.572;13.378;2022-12-07T10:30:51;17.98;;;11.93;;
48487;SDS011;34289;48.572;13.378;2022-12-07T10:34:12;15.15;;;11.63;;
48487;SDS011;34289;48.572;13.378;2022-12-07T10:39:19;12.60;;;9.93;;
48487;SDS011;34289;48.572;13.378;2022-12-07T10:41:58;12.10;;;10.43;;
48487;SDS011;34289;48.572;13.378;2022-12-07T10:44:29;12.05;;;10.85;;
48487;SDS011;34289;48.572;13.378;2022-12-07T10:47:19;12.40;;;11.07;;
48487;SDS011;34289;48.572;13.378;2022-12-07T11:00:27;12.40;;;10.50;;
48487;SDS011;34289;48.572;13.378;2022-12-07T11:11:36;12.35;;;10.50;;
48487;SDS011;34289;48.572;13.378;2022-12-07T11:14:17;11.73;;;10.10;;
48487;SDS011;34289;48.572;13.378;2022-12-07T11:17:20;13.90;;;10.77;;
48487;SDS011;34289;48.572;13.378;2022-12-07T11:33:46;13.35;;;12.00;;
48487;SDS011;34289;48.572;13.378;2022-12-07T11:39:28;13.93;;;11.45;;
48487;SDS011;34289;48.572;13.378;2022-12-07T11:42:08;12.32;;;11.02;;
48487;SDS011;34289;48.572;13.378;2022-12-07T11:44:44;14.32;;;11.13;;
48487;SDS011;34289;48.572;13.378;2022-12-07T11:47:28;11.48;;;10.27;;
48487;SDS011;34289;48.572;13.378;2022-12-07T11:50:24;13.35;;;11.95;;
48487;SDS011;34289;48.572;13.378;2022-12-07T12:01:42;12.95;;;10.60;;
48487;SDS011;34289;48.572;13.378;2022-12-07T12:06:36;12.27;;;10.93;;
48487;SDS011;34289;48.572;13.378;2022-12-07T12:14:45;14.02;;;10.98;;
48487;SDS011;34289;48.572;13.378;2022-12-07T12:20:13;14.43;;;11.02;;
48487;SDS011;34289;48.572;13.378;2022-12-07T12:23:20;12.23;;;10.50;;
48487;SDS011;34289;48.572;13.378;2022-12-07T12:25:47;13.20;;;11.25;;
48487;SDS011;34289;48.572;13.378;2022-12-07T12:33:31;12.40;;;11.10;;
48487;SDS011;34289;48.572;13.378;2022-12-07T12:39:27;18.42;;;14.13;;
48487;SDS011;34289;48.572;13.378;2022-12-07T12:46:55;12.95;;;11.65;;
48487;SDS011;34289;48.572;13.378;2022-12-07T12:51:51;11.77;;;10.40;;
48487;SDS011;34289;48.572;13.378;2022-12-07T12:54:32;14.52;;;12.38;;
48487;SDS011;34289;48.572;13.378;2022-12-07T13:00:17;15.73;;;12.30;;
48487;SDS011;34289;48.572;13.378;2022-12-07T13:02:38;17.55;;;13.15;;
48487;SDS011;34289;48.572;13.378;2022-12-07T13:12:59;13.98;;;11.15;;
48487;SDS011;34289;48.572;13.378;2022-12-07T13:15:35;15.63;;;11.95;;
48487;SDS011;34289;48.572;13.378;2022-12-07T13:18:03;14.40;;;11.23;;
48487;SDS011;34289;48.572;13.378;2022-12-07T13:20:50;15.30;;;11.75;;
48487;SDS011;34289;48.572;13.378;2022-12-07T13:23:18;12.80;;;10.90;;
48487;SDS011;34289;48.572;13.378;2022-12-07T13:26:33;14.07;;;11.40;;
48487;SDS011;34289;48.572;13.378;2022-12-07T13:29:00;14.00;;;11.38;;
48487;SDS011;34289;48.572;13.378;2022-12-07T13:39:58;12.75;;;11.23;;
48487;SDS011;34289;48.572;13.378;2022-12-07T13:42:25;11.13;;;8.63;;
48487;SDS011;34289;48.572;13.378;2022-12-07T13:44:55;12.60;;;10.43;;
48487;SDS011;34289;48.572;13.378;2022-12-07T13:50:21;13.68;;;9.73;;
48487;SDS011;34289;48.572;13.378;2022-12-07T13:52:49;12.75;;;9.90;;
48487;SDS011;34289;48.572;13.378;2022-12-07T13:55:15;11.70;;;9.00;;
48487;SDS011;34289;48.572;13.378;2022-12-07T13:57:42;15.50;;;10.95;;
48487;SDS011;34289;48.572;13.378;2022-12-07T14:00:16;14.10;;;9.70;;
48487;SDS011;34289;48.572;13.378;2022-12-07T14:02:59;12.75;;;9.82;;
48487;SDS011;34289;48.572;13.378;2022-12-07T14:05:27;13.77;;;10.20;;
48487;SDS011;34289;48.572;13.378;2022-12-07T14:12:57;14.73;;;9.98;;
48487;SDS011;34289;48.572;13.378;2022-12-07T14:15:28;12.30;;;10.63;;
48487;SDS011;34289;48.572;13.378;2022-12-07T14:17:55;13.95;;;10.77;;
48487;SDS011;34289;48.572;13.378;2022-12-07T14:20:44;13.35;;;10.77;;
48487;SDS011;34289;48.572;13.378;2022-12-07T14:23:23;21.55;;;13.27;;
48487;SDS011;34289;48.572;13.378;2022-12-07T14:25:51;28.80;;;21.10;;
48487;SDS011;34289;48.572;13.378;2022-12-07T14:28:34;24.33;;;15.65;;
48487;SDS011;34289;48.572;13.378;2022-12-07T14:31:00;13.20;;;11.07;;
48487;SDS011;34289;48.572;13.378;2022-12-07T14:33:27;26.50;;;18.48;;
48487;SDS011;34289;48.572;13.378;2022-12-07T14:35:53;13.50;;;11.10;;
48487;SDS011;34289;48.572;13.378;2022-12-07T14:38:29;13.32;;;11.30;;
48487;SDS011;34289;48.572;13.378;2022-12-07T14:40:55;15.85;;;10.60;;
48487;SDS011;34289;48.572;13.378;2022-12-07T14:43:44;50.97;;;34.03;;
48487;SDS011;34289;48.572;13.378;2022-12-07T14:46:10;15.93;;;12.65;;
48487;SDS011;34289;48.572;13.378;2022-12-07T14:48:36;12.98;;;10.93;;
48487;SDS011;34289;48.572;13.378;2022-12-07T14:51:01;13.90;;;10.88;;
48487;SDS011;34289;48.572;13.378;2022-12-07T14:53:30;11.88;;;10.60;;
48487;SDS011;34289;48.572;13.378;2022-12-07T14:56:03;17.70;;;12.05;;
48487;SDS011;34289;48.572;13.378;2022-12-07T14:58:30;13.65;;;11.18;;
48487;SDS011;34289;48.572;13.378;2022-12-07T15:00:57;14.25;;;11.10;;
48487;SDS011;34289;48.572;13.378;2022-12-07T15:03:23;20.20;;;15.60;;
48487;SDS011;34289;48.572;13.378;2022-12-07T15:05:48;19.55;;;13.93;;
48487;SDS011;34289;48.572;13.378;2022-12-07T15:08:14;14.05;;;11.35;;
48487;SDS011;34289;48.572;13.378;2022-12-07T15:10:40;12.45;;;10.35;;
48487;SDS011;34289;48.572;13.378;2022-12-07T15:13:06;13.93;;;10.68;;
48487;SDS011;34289;48.572;13.378;2022-12-07T15:15:51;13.73;;;10.98;;
48487;SDS011;34289;48.572;13.378;2022-12-07T15:18:18;13.60;;;11.88;;
48487;SDS011;34289;48.572;13.378;2022-12-07T15:20:44;16.30;;;11.23;;
48487;SDS011;34289;48.572;13.378;2022-12-07T15:23:11;15.23;;;11.07;;
48487;SDS011;34289;48.572;13.378;2022-12-07T15:25:40;13.20;;;11.82;;
48487;SDS011;34289;48.572;13.378;2022-12-07T15:28:10;16.92;;;10.55;;
48487;SDS011;34289;48.572;13.378;2022-12-07T15:30:39;13.43;;;10.88;;
48487;SDS011;34289;48.572;13.378;2022-12-07T15:33:07;14.85;;;10.85;;
48487;SDS011;34289;48.572;13.378;2022-12-07T15:35:33;15.52;;;11.77;;
48487;SDS011;34289;48.572;13.378;2022-12-07T15:38:03;17.80;;;12.07;;
48487;SDS011;34289;48.572;13.378;2022-12-07T15:40:28;12.48;;;10.13;;
48487;SDS011;34289;48.572;13.378;2022-12-07T15:42:54;14.73;;;11.18;;
48487;SDS011;34289;48.572;13.378;2022-12-07T15:45:20;14.45;;;10.85;;
48487;SDS011;34289;48.572;13.378;2022-12-07T15:47:45;14.18;;;11.18;;
48487;SDS011;34289;48.572;13.378;2022-12-07T15:50:12;13.32;;;10.52;;
48487;SDS011;34289;48.572;13.378;2022-12-07T15:52:39;12.63;;;11.32;;
48487;SDS011;34289;48.572;13.378;2022-12-07T15:55:06;13.27;;;11.05;;
48487;SDS011;34289;48.572;13.378;2022-12-07T15:57:32;13.77;;;10.13;;
48487;SDS011;34289;48.572;13.378;2022-12-07T16:00:00;12.25;;;9.85;;
48487;SDS011;34289;48.572;13.378;2022-12-07T16:02:26;12.45;;;10.10;;
48487;SDS011;34289;48.572;13.378;2022-12-07T16:04:51;14.90;;;10.35;;
48487;SDS011;34289;48.572;13.378;2022-12-07T16:07:18;14.30;;;10.70;;
48487;SDS011;34289;48.572;13.378;2022-12-07T16:09:44;12.85;;;11.05;;
48487;SDS011;34289;48.572;13.378;2022-12-07T16:12:11;13.30;;;10.45;;
48487;SDS011;34289;48.572;13.378;2022-12-07T16:14:38;13.02;;;9.57;;
48487;SDS011;34289;48.572;13.378;2022-12-07T16:17:04;16.45;;;10.77;;
48487;SDS011;34289;48.572;13.378;2022-12-07T16:19:31;12.73;;;9.82;;
48487;SDS011;34289;48.572;13.378;2022-12-07T16:21:57;14.45;;;10.70;;
48487;SDS011;34289;48.572;13.378;2022-12-07T16:24:24;12.88;;;9.75;;
48487;SDS011;34289;48.572;13.378;2022-12-07T16:26:49;14.80;;;10.05;;
48487;SDS011;34289;48.572;13.378;2022-12-07T16:29:15;13.23;;;10.13;;
48487;SDS011;34289;48.572;13.378;2022-12-07T16:31:42;14.45;;;9.85;;
48487;SDS011;34289;48.572;13.378;2022-12-07T16:34:08;12.35;;;9.43;;
48487;SDS011;34289;48.572;13.378;2022-12-07T16:36:34;12.63;;;9.20;;
48487;SDS011;34289;48.572;13.378;2022-12-07T16:39:00;15.82;;;9.70;;
48487;SDS011;34289;48.572;13.378;2022-12-07T16:41:26;16.90;;;10.95;;
48487;SDS011;34289;48.572;13.378;2022-12-07T16:43:54;16.35;;;11.65;;
48487;SDS011;34289;48.572;13.378;2022-12-07T16:46:20;17.08;;;12.23;;
48487;SDS011;34289;48.572;13.378;2022-12-07T16:48:46;16.17;;;12.40;;
48487;SDS011;34289;48.572;13.378;2022-12-07T16:51:12;21.48;;;13.52;;
48487;SDS011;34289;48.572;13.378;2022-12-07T16:53:39;19.33;;;12.35;;